sensor_id;sensor_type;location;lat;lon;timestamp;P1;durP1;ratioP1;P2;durP2;ratioP2
3643;SDS011;1838;50.742;7.158;2023-09-19T00:02:00;4.50;;;2.00;;
3643;SDS011;1838;50.742;7.158;2023-09-19T00:04:31;3.10;;;2.30;;
3643;SDS011;1838;50.742;7.158;2023-09-19T00:06:59;3.20;;;1.30;;
3643;SDS011;1838;50.742;7.158;2023-09-19T00:09:27;4.17;;;1.83;;
3643;SDS011;1838;50.742;7.158;2023-09-19T00:11:53;4.83;;;2.07;;
3643;SDS011;1838;50.742;7.158;2023-09-19T00:14:18;3.93;;;1.60;;
3643;SDS011;1838;50.742;7.158;2023-09-19T00:16:44;6.80;;;1.80;;
3643;SDS011;1838;50.742;7.158;2023-09-19T00:19:11;2.73;;;1.70;;
3643;SDS011;1838;50.742;7.158;2023-09-19T00:21:37;2.50;;;1.53;;
3643;SDS011;1838;50.742;7.158;2023-09-19T00:24:03;5.03;;;2.20;;
3643;SDS011;1838;50.742;7.158;2023-09-19T00:26:31;6.23;;;1.70;;
3643;SDS011;1838;50.742;7.158;2023-09-19T00:28:57;4.70;;;2.03;;
3643;SDS011;1838;50.742;7.158;2023-09-19T00:31:29;3.70;;;1.60;;
3643;SDS011;1838;50.742;7.158;2023-09-19T00:33:55;3.03;;;1.97;;
3643;SDS011;1838;50.742;7.158;2023-09-19T00:36:24;7.27;;;1.93;;
3643;SDS011;1838;50.742;7.158;2023-09-19T00:38:50;5.17;;;2.00;;
3643;SDS011;1838;50.742;7.158;2023-09-19T00:41:15;2.73;;;1.50;;
3643;SDS011;1838;50.742;7.158;2023-09-19T00:43:41;4.97;;;2.00;;
3643;SDS011;1838;50.742;7.158;2023-09-19T00:46:07;4.07;;;1.73;;
3643;SDS011;1838;50.742;7.158;2023-09-19T00:48:32;5.60;;;2.23;;
3643;SDS011;1838;50.742;7.158;2023-09-19T00:51:06;7.33;;;2.33;;
3643;SDS011;1838;50.742;7.158;2023-09-19T00:53:32;2.87;;;1.60;;
3643;SDS011;1838;50.742;7.158;2023-09-19T00:55:59;4.80;;;1.83;;
3643;SDS011;1838;50.742;7.158;2023-09-19T00:58:25;5.57;;;2.10;;
3643;SDS011;1838;50.742;7.158;2023-09-19T01:00:50;3.20;;;1.87;;
3643;SDS011;1838;50.742;7.158;2023-09-19T01:03:18;6.13;;;2.10;;
3643;SDS011;1838;50.742;7.158;2023-09-19T01:05:43;4.37;;;1.90;;
3643;SDS011;1838;50.742;7.158;2023-09-19T01:08:09;5.37;;;1.90;;
3643;SDS011;1838;50.742;7.158;2023-09-19T01:10:40;6.13;;;2.10;;
3643;SDS011;1838;50.742;7.158;2023-09-19T01:13:21;3.77;;;2.13;;
3643;SDS011;1838;50.742;7.158;2023-09-19T01:29:43;8.47;;;2.10;;
3643;SDS011;1838;50.742;7.158;2023-09-19T01:32:11;3.97;;;1.90;;
3643;SDS011;1838;50.742;7.158;2023-09-19T01:34:48;5.33;;;1.63;;
3643;SDS011;1838;50.742;7.158;2023-09-19T01:37:28;3.80;;;2.00;;
3643;SDS011;1838;50.742;7.158;2023-09-19T01:39:55;5.47;;;2.20;;
3643;SDS011;1838;50.742;7.158;2023-09-19T01:45:11;7.90;;;2.20;;
3643;SDS011;1838;50.742;7.158;2023-09-19T01:47:56;4.77;;;1.87;;
3643;SDS011;1838;50.742;7.158;2023-09-19T01:50:32;12.23;;;2.60;;
3643;SDS011;1838;50.742;7.158;2023-09-19T01:55:49;6.40;;;2.00;;
3643;SDS011;1838;50.742;7.158;2023-09-19T01:58:18;4.33;;;1.80;;
3643;SDS011;1838;50.742;7.158;2023-09-19T02:00:49;8.87;;;2.47;;
3643;SDS011;1838;50.742;7.158;2023-09-19T02:03:16;5.10;;;2.10;;
3643;SDS011;1838;50.742;7.158;2023-09-19T02:05:47;7.63;;;2.07;;
3643;SDS011;1838;50.742;7.158;2023-09-19T02:08:18;8.17;;;2.77;;
3643;SDS011;1838;50.742;7.158;2023-09-19T02:10:45;4.90;;;1.90;;
3643;SDS011;1838;50.742;7.158;2023-09-19T02:13:17;13.70;;;3.37;;
3643;SDS011;1838;50.742;7.158;2023-09-19T02:15:44;4.73;;;2.23;;
3643;SDS011;1838;50.742;7.158;2023-09-19T02:18:10;4.63;;;2.10;;
3643;SDS011;1838;50.742;7.158;2023-09-19T02:20:39;3.67;;;1.87;;
3643;SDS011;1838;50.742;7.158;2023-09-19T02:23:05;4.23;;;2.20;;
3643;SDS011;1838;50.742;7.158;2023-09-19T02:25:31;6.03;;;2.47;;
3643;SDS011;1838;50.742;7.158;2023-09-19T02:27:57;3.90;;;1.97;;
3643;SDS011;1838;50.742;7.158;2023-09-19T02:30:23;7.43;;;2.27;;
3643;SDS011;1838;50.742;7.158;2023-09-19T02:32:50;16.17;;;2.27;;
3643;SDS011;1838;50.742;7.158;2023-09-19T02:35:16;9.60;;;2.67;;
3643;SDS011;1838;50.742;7.158;2023-09-19T02:37:44;11.40;;;3.30;;
3643;SDS011;1838;50.742;7.158;2023-09-19T02:40:10;7.47;;;2.40;;
3643;SDS011;1838;50.742;7.158;2023-09-19T02:42:53;14.47;;;2.67;;
3643;SDS011;1838;50.742;7.158;2023-09-19T02:45:20;7.83;;;1.90;;
3643;SDS011;1838;50.742;7.158;2023-09-19T02:47:47;6.23;;;2.33;;
3643;SDS011;1838;50.742;7.158;2023-09-19T02:50:13;4.73;;;2.00;;
3643;SDS011;1838;50.742;7.158;2023-09-19T02:52:41;8.13;;;2.77;;
3643;SDS011;1838;50.742;7.158;2023-09-19T02:55:08;9.33;;;2.77;;
3643;SDS011;1838;50.742;7.158;2023-09-19T02:57:37;6.57;;;2.33;;
3643;SDS011;1838;50.742;7.158;2023-09-19T03:00:06;9.00;;;2.43;;
3643;SDS011;1838;50.742;7.158;2023-09-19T03:02:33;16.23;;;2.93;;
3643;SDS011;1838;50.742;7.158;2023-09-19T03:04:59;11.03;;;2.60;;
3643;SDS011;1838;50.742;7.158;2023-09-19T03:07:25;6.27;;;2.20;;
3643;SDS011;1838;50.742;7.158;2023-09-19T03:09:51;5.13;;;2.40;;
3643;SDS011;1838;50.742;7.158;2023-09-19T03:12:17;9.67;;;2.40;;
3643;SDS011;1838;50.742;7.158;2023-09-19T03:14:43;5.90;;;2.10;;
3643;SDS011;1838;50.742;7.158;2023-09-19T03:17:09;7.23;;;2.77;;
3643;SDS011;1838;50.742;7.158;2023-09-19T03:19:34;6.80;;;2.10;;
3643;SDS011;1838;50.742;7.158;2023-09-19T03:22:00;6.37;;;2.60;;
3643;SDS011;1838;50.742;7.158;2023-09-19T03:24:25;12.07;;;2.83;;
3643;SDS011;1838;50.742;7.158;2023-09-19T03:26:52;8.10;;;2.50;;
3643;SDS011;1838;50.742;7.158;2023-09-19T03:29:17;12.03;;;3.37;;
3643;SDS011;1838;50.742;7.158;2023-09-19T03:31:43;7.43;;;2.80;;
3643;SDS011;1838;50.742;7.158;2023-09-19T03:34:09;7.27;;;2.67;;
3643;SDS011;1838;50.742;7.158;2023-09-19T03:36:34;10.03;;;2.67;;
3643;SDS011;1838;50.742;7.158;2023-09-19T03:39:00;10.03;;;2.37;;
3643;SDS011;1838;50.742;7.158;2023-09-19T03:41:26;7.73;;;3.10;;
3643;SDS011;1838;50.742;7.158;2023-09-19T03:43:52;11.60;;;2.50;;
3643;SDS011;1838;50.742;7.158;2023-09-19T03:46:18;10.30;;;2.63;;
3643;SDS011;1838;50.742;7.158;2023-09-19T03:48:43;6.43;;;2.50;;
3643;SDS011;1838;50.742;7.158;2023-09-19T03:51:09;4.27;;;2.20;;
3643;SDS011;1838;50.742;7.158;2023-09-19T03:53:35;6.50;;;2.17;;
3643;SDS011;1838;50.742;7.158;2023-09-19T03:56:01;5.20;;;2.20;;
3643;SDS011;1838;50.742;7.158;2023-09-19T03:58:27;12.07;;;2.50;;
3643;SDS011;1838;50.742;7.158;2023-09-19T04:00:56;8.40;;;2.80;;
3643;SDS011;1838;50.742;7.158;2023-09-19T04:03:23;6.27;;;2.43;;
3643;SDS011;1838;50.742;7.158;2023-09-19T04:05:50;17.50;;;4.47;;
3643;SDS011;1838;50.742;7.158;2023-09-19T04:08:15;9.03;;;2.67;;
3643;SDS011;1838;50.742;7.158;2023-09-19T04:10:41;6.60;;;2.07;;
3643;SDS011;1838;50.742;7.158;2023-09-19T04:13:08;9.53;;;2.60;;
3643;SDS011;1838;50.742;7.158;2023-09-19T04:15:34;10.87;;;2.07;;
3643;SDS011;1838;50.742;7.158;2023-09-19T04:17:59;8.23;;;3.00;;
3643;SDS011;1838;50.742;7.158;2023-09-19T04:20:25;7.20;;;2.67;;
3643;SDS011;1838;50.742;7.158;2023-09-19T04:22:50;6.57;;;2.70;;
3643;SDS011;1838;50.742;7.158;2023-09-19T04:25:16;11.07;;;2.73;;
3643;SDS011;1838;50.742;7.158;2023-09-19T04:27:43;10.30;;;2.87;;
3643;SDS011;1838;50.742;7.158;2023-09-19T04:30:09;13.33;;;3.60;;
3643;SDS011;1838;50.742;7.158;2023-09-19T04:32:36;18.53;;;3.53;;
3643;SDS011;1838;50.742;7.158;2023-09-19T04:35:06;13.37;;;3.20;;
3643;SDS011;1838;50.742;7.158;2023-09-19T04:37:37;16.20;;;3.37;;
3643;SDS011;1838;50.742;7.158;2023-09-19T04:40:09;16.10;;;2.80;;
3643;SDS011;1838;50.742;7.158;2023-09-19T04:42:39;8.37;;;3.00;;
3643;SDS011;1838;50.742;7.158;2023-09-19T04:45:06;22.37;;;3.27;;
3643;SDS011;1838;50.742;7.158;2023-09-19T04:47:34;7.57;;;3.03;;
3643;SDS011;1838;50.742;7.158;2023-09-19T04:49:59;7.10;;;2.70;;
3643;SDS011;1838;50.742;7.158;2023-09-19T04:52:25;10.20;;;2.67;;
3643;SDS011;1838;50.742;7.158;2023-09-19T04:54:50;19.37;;;3.80;;
3643;SDS011;1838;50.742;7.158;2023-09-19T04:57:16;12.50;;;2.43;;
3643;SDS011;1838;50.742;7.158;2023-09-19T04:59:41;19.80;;;3.40;;
3643;SDS011;1838;50.742;7.158;2023-09-19T05:02:07;13.97;;;3.80;;
3643;SDS011;1838;50.742;7.158;2023-09-19T05:04:37;5.87;;;2.60;;
3643;SDS011;1838;50.742;7.158;2023-09-19T05:07:02;8.50;;;2.40;;
3643;SDS011;1838;50.742;7.158;2023-09-19T05:09:28;11.03;;;2.63;;
3643;SDS011;1838;50.742;7.158;2023-09-19T05:11:54;9.73;;;2.90;;
3643;SDS011;1838;50.742;7.158;2023-09-19T05:14:20;5.87;;;2.90;;
3643;SDS011;1838;50.742;7.158;2023-09-19T05:16:47;6.83;;;2.80;;
3643;SDS011;1838;50.742;7.158;2023-09-19T05:19:13;14.33;;;3.00;;
3643;SDS011;1838;50.742;7.158;2023-09-19T05:21:38;11.20;;;2.53;;
3643;SDS011;1838;50.742;7.158;2023-09-19T05:24:07;8.83;;;2.67;;
3643;SDS011;1838;50.742;7.158;2023-09-19T05:26:32;6.47;;;2.80;;
3643;SDS011;1838;50.742;7.158;2023-09-19T05:28:58;7.33;;;2.20;;
3643;SDS011;1838;50.742;7.158;2023-09-19T05:31:24;6.20;;;2.20;;
3643;SDS011;1838;50.742;7.158;2023-09-19T05:33:50;14.10;;;3.30;;
3643;SDS011;1838;50.742;7.158;2023-09-19T05:36:19;10.90;;;2.53;;
3643;SDS011;1838;50.742;7.158;2023-09-19T05:38:45;4.63;;;2.50;;
3643;SDS011;1838;50.742;7.158;2023-09-19T05:41:13;7.60;;;2.90;;
3643;SDS011;1838;50.742;7.158;2023-09-19T05:43:39;6.07;;;3.20;;
3643;SDS011;1838;50.742;7.158;2023-09-19T05:46:06;10.33;;;2.80;;
3643;SDS011;1838;50.742;7.158;2023-09-19T05:48:33;10.73;;;2.80;;
3643;SDS011;1838;50.742;7.158;2023-09-19T05:50:59;11.50;;;3.57;;
3643;SDS011;1838;50.742;7.158;2023-09-19T05:53:26;6.23;;;2.43;;
3643;SDS011;1838;50.742;7.158;2023-09-19T05:55:52;10.93;;;3.60;;
3643;SDS011;1838;50.742;7.158;2023-09-19T05:58:19;13.50;;;3.20;;
3643;SDS011;1838;50.742;7.158;2023-09-19T06:00:44;11.17;;;3.30;;
3643;SDS011;1838;50.742;7.158;2023-09-19T06:03:12;12.87;;;3.17;;
3643;SDS011;1838;50.742;7.158;2023-09-19T06:05:39;6.70;;;2.93;;
3643;SDS011;1838;50.742;7.158;2023-09-19T06:08:06;7.70;;;2.67;;
3643;SDS011;1838;50.742;7.158;2023-09-19T06:10:33;12.97;;;3.60;;
3643;SDS011;1838;50.742;7.158;2023-09-19T06:12:59;5.73;;;2.50;;
3643;SDS011;1838;50.742;7.158;2023-09-19T06:15:25;8.83;;;3.30;;
3643;SDS011;1838;50.742;7.158;2023-09-19T06:17:55;14.90;;;3.00;;
3643;SDS011;1838;50.742;7.158;2023-09-19T06:20:21;13.90;;;3.53;;
3643;SDS011;1838;50.742;7.158;2023-09-19T06:22:48;16.63;;;3.27;;
3643;SDS011;1838;50.742;7.158;2023-09-19T06:25:14;9.40;;;3.50;;
3643;SDS011;1838;50.742;7.158;2023-09-19T06:27:47;14.53;;;2.93;;
3643;SDS011;1838;50.742;7.158;2023-09-19T06:30:17;10.03;;;2.87;;
3643;SDS011;1838;50.742;7.158;2023-09-19T06:32:43;9.10;;;3.83;;
3643;SDS011;1838;50.742;7.158;2023-09-19T06:35:09;9.03;;;2.80;;
3643;SDS011;1838;50.742;7.158;2023-09-19T06:37:36;6.90;;;2.87;;
3643;SDS011;1838;50.742;7.158;2023-09-19T06:40:08;9.43;;;3.00;;
3643;SDS011;1838;50.742;7.158;2023-09-19T06:42:39;8.43;;;2.77;;
3643;SDS011;1838;50.742;7.158;2023-09-19T06:45:06;10.50;;;3.20;;
3643;SDS011;1838;50.742;7.158;2023-09-19T06:47:32;12.00;;;3.50;;
3643;SDS011;1838;50.742;7.158;2023-09-19T06:49:57;9.30;;;3.10;;
3643;SDS011;1838;50.742;7.158;2023-09-19T06:52:23;9.60;;;2.73;;
3643;SDS011;1838;50.742;7.158;2023-09-19T06:54:48;14.67;;;2.60;;
3643;SDS011;1838;50.742;7.158;2023-09-19T06:57:15;9.53;;;2.93;;
3643;SDS011;1838;50.742;7.158;2023-09-19T06:59:41;12.50;;;3.50;;
3643;SDS011;1838;50.742;7.158;2023-09-19T07:02:07;9.60;;;3.03;;
3643;SDS011;1838;50.742;7.158;2023-09-19T07:04:33;8.90;;;2.80;;
3643;SDS011;1838;50.742;7.158;2023-09-19T07:06:59;6.17;;;3.10;;
3643;SDS011;1838;50.742;7.158;2023-09-19T07:09:24;13.17;;;2.90;;
3643;SDS011;1838;50.742;7.158;2023-09-19T07:11:52;13.73;;;2.70;;
3643;SDS011;1838;50.742;7.158;2023-09-19T07:14:18;13.23;;;3.70;;
3643;SDS011;1838;50.742;7.158;2023-09-19T07:16:43;10.80;;;3.30;;
3643;SDS011;1838;50.742;7.158;2023-09-19T07:19:10;11.60;;;3.50;;
3643;SDS011;1838;50.742;7.158;2023-09-19T07:21:35;17.50;;;4.17;;
3643;SDS011;1838;50.742;7.158;2023-09-19T07:24:01;9.83;;;3.20;;
3643;SDS011;1838;50.742;7.158;2023-09-19T07:26:28;11.30;;;2.37;;
3643;SDS011;1838;50.742;7.158;2023-09-19T07:28:54;11.83;;;2.80;;
3643;SDS011;1838;50.742;7.158;2023-09-19T07:31:21;10.33;;;3.13;;
3643;SDS011;1838;50.742;7.158;2023-09-19T07:33:47;13.63;;;3.20;;
3643;SDS011;1838;50.742;7.158;2023-09-19T07:36:13;17.63;;;4.17;;
3643;SDS011;1838;50.742;7.158;2023-09-19T07:38:39;11.90;;;2.83;;
3643;SDS011;1838;50.742;7.158;2023-09-19T07:41:06;10.97;;;3.30;;
3643;SDS011;1838;50.742;7.158;2023-09-19T07:43:33;15.80;;;3.30;;
3643;SDS011;1838;50.742;7.158;2023-09-19T07:46:06;11.17;;;2.80;;
3643;SDS011;1838;50.742;7.158;2023-09-19T07:48:33;8.70;;;3.33;;
3643;SDS011;1838;50.742;7.158;2023-09-19T07:51:05;17.07;;;2.83;;
3643;SDS011;1838;50.742;7.158;2023-09-19T07:53:33;10.47;;;3.10;;
3643;SDS011;1838;50.742;7.158;2023-09-19T07:56:05;11.93;;;2.87;;
3643;SDS011;1838;50.742;7.158;2023-09-19T07:58:32;10.10;;;2.90;;
3643;SDS011;1838;50.742;7.158;2023-09-19T08:03:31;7.93;;;3.87;;
3643;SDS011;1838;50.742;7.158;2023-09-19T08:06:02;20.10;;;3.30;;
3643;SDS011;1838;50.742;7.158;2023-09-19T08:08:29;4.90;;;2.53;;
3643;SDS011;1838;50.742;7.158;2023-09-19T08:10:55;10.90;;;3.00;;
3643;SDS011;1838;50.742;7.158;2023-09-19T08:13:22;5.77;;;2.43;;
3643;SDS011;1838;50.742;7.158;2023-09-19T08:15:48;8.27;;;3.10;;
3643;SDS011;1838;50.742;7.158;2023-09-19T08:18:14;11.43;;;3.30;;
3643;SDS011;1838;50.742;7.158;2023-09-19T08:20:41;6.60;;;2.70;;
3643;SDS011;1838;50.742;7.158;2023-09-19T08:23:11;17.57;;;4.10;;
3643;SDS011;1838;50.742;7.158;2023-09-19T08:25:36;6.97;;;2.73;;
3643;SDS011;1838;50.742;7.158;2023-09-19T08:28:04;6.73;;;3.10;;
3643;SDS011;1838;50.742;7.158;2023-09-19T08:30:33;15.80;;;3.37;;
3643;SDS011;1838;50.742;7.158;2023-09-19T08:32:59;8.20;;;3.07;;
3643;SDS011;1838;50.742;7.158;2023-09-19T08:35:28;11.23;;;3.27;;
3643;SDS011;1838;50.742;7.158;2023-09-19T08:37:54;12.43;;;3.43;;
3643;SDS011;1838;50.742;7.158;2023-09-19T08:40:20;9.90;;;2.43;;
3643;SDS011;1838;50.742;7.158;2023-09-19T08:45:15;13.20;;;3.43;;
3643;SDS011;1838;50.742;7.158;2023-09-19T08:47:45;18.97;;;3.10;;
3643;SDS011;1838;50.742;7.158;2023-09-19T08:50:19;8.93;;;2.77;;
3643;SDS011;1838;50.742;7.158;2023-09-19T08:52:51;10.50;;;2.70;;
3643;SDS011;1838;50.742;7.158;2023-09-19T08:55:19;7.83;;;3.47;;
3643;SDS011;1838;50.742;7.158;2023-09-19T08:57:49;17.03;;;3.03;;
3643;SDS011;1838;50.742;7.158;2023-09-19T09:00:17;9.57;;;2.77;;
3643;SDS011;1838;50.742;7.158;2023-09-19T09:02:43;6.13;;;2.70;;
3643;SDS011;1838;50.742;7.158;2023-09-19T09:05:11;8.83;;;2.93;;
3643;SDS011;1838;50.742;7.158;2023-09-19T09:07:37;9.00;;;3.57;;
3643;SDS011;1838;50.742;7.158;2023-09-19T09:10:05;11.20;;;2.57;;
3643;SDS011;1838;50.742;7.158;2023-09-19T09:12:31;4.63;;;3.00;;
3643;SDS011;1838;50.742;7.158;2023-09-19T09:15:01;11.63;;;3.30;;
3643;SDS011;1838;50.742;7.158;2023-09-19T09:17:28;10.60;;;2.87;;
3643;SDS011;1838;50.742;7.158;2023-09-19T09:19:54;8.60;;;2.77;;
3643;SDS011;1838;50.742;7.158;2023-09-19T09:22:21;10.30;;;2.80;;
3643;SDS011;1838;50.742;7.158;2023-09-19T09:24:55;8.53;;;2.77;;
3643;SDS011;1838;50.742;7.158;2023-09-19T09:27:28;12.03;;;3.27;;
3643;SDS011;1838;50.742;7.158;2023-09-19T09:29:54;8.53;;;2.83;;
3643;SDS011;1838;50.742;7.158;2023-09-19T09:32:24;8.40;;;2.43;;
3643;SDS011;1838;50.742;7.158;2023-09-19T09:34:52;10.77;;;2.70;;
3643;SDS011;1838;50.742;7.158;2023-09-19T09:37:19;8.10;;;2.60;;
3643;SDS011;1838;50.742;7.158;2023-09-19T09:39:49;10.13;;;2.90;;
3643;SDS011;1838;50.742;7.158;2023-09-19T09:42:31;6.43;;;2.60;;
3643;SDS011;1838;50.742;7.158;2023-09-19T09:45:13;9.10;;;2.60;;
3643;SDS011;1838;50.742;7.158;2023-09-19T09:47:45;9.50;;;2.63;;
3643;SDS011;1838;50.742;7.158;2023-09-19T09:50:27;8.53;;;3.70;;
3643;SDS011;1838;50.742;7.158;2023-09-19T09:53:01;9.93;;;2.67;;
3643;SDS011;1838;50.742;7.158;2023-09-19T09:58:31;7.40;;;3.20;;
3643;SDS011;1838;50.742;7.158;2023-09-19T10:01:21;8.30;;;2.40;;
3643;SDS011;1838;50.742;7.158;2023-09-19T10:03:52;5.53;;;2.53;;
3643;SDS011;1838;50.742;7.158;2023-09-19T10:06:23;5.80;;;2.23;;
3643;SDS011;1838;50.742;7.158;2023-09-19T10:09:07;5.50;;;2.47;;
3643;SDS011;1838;50.742;7.158;2023-09-19T10:11:38;4.80;;;2.60;;
3643;SDS011;1838;50.742;7.158;2023-09-19T10:14:08;6.40;;;2.00;;
3643;SDS011;1838;50.742;7.158;2023-09-19T10:16:35;7.90;;;1.67;;
3643;SDS011;1838;50.742;7.158;2023-09-19T10:19:05;4.33;;;2.00;;
3643;SDS011;1838;50.742;7.158;2023-09-19T10:21:34;7.13;;;2.47;;
3643;SDS011;1838;50.742;7.158;2023-09-19T10:24:01;7.53;;;2.60;;
3643;SDS011;1838;50.742;7.158;2023-09-19T10:26:29;6.10;;;2.27;;
3643;SDS011;1838;50.742;7.158;2023-09-19T10:28:56;6.17;;;2.10;;
3643;SDS011;1838;50.742;7.158;2023-09-19T10:31:24;7.17;;;2.27;;
3643;SDS011;1838;50.742;7.158;2023-09-19T10:33:52;5.47;;;2.20;;
3643;SDS011;1838;50.742;7.158;2023-09-19T10:36:20;6.63;;;3.03;;
3643;SDS011;1838;50.742;7.158;2023-09-19T10:38:50;7.10;;;2.17;;
3643;SDS011;1838;50.742;7.158;2023-09-19T10:41:20;8.93;;;2.63;;
3643;SDS011;1838;50.742;7.158;2023-09-19T10:43:47;4.87;;;2.40;;
3643;SDS011;1838;50.742;7.158;2023-09-19T10:46:13;4.20;;;2.13;;
3643;SDS011;1838;50.742;7.158;2023-09-19T10:48:40;8.83;;;2.60;;
3643;SDS011;1838;50.742;7.158;2023-09-19T10:51:12;7.17;;;2.80;;
3643;SDS011;1838;50.742;7.158;2023-09-19T10:53:46;4.47;;;1.67;;
3643;SDS011;1838;50.742;7.158;2023-09-19T10:56:19;9.47;;;1.90;;
3643;SDS011;1838;50.742;7.158;2023-09-19T10:58:49;2.77;;;2.00;;
3643;SDS011;1838;50.742;7.158;2023-09-19T11:01:16;8.90;;;2.50;;
3643;SDS011;1838;50.742;7.158;2023-09-19T11:03:42;7.50;;;2.60;;
3643;SDS011;1838;50.742;7.158;2023-09-19T11:06:16;5.80;;;2.50;;
3643;SDS011;1838;50.742;7.158;2023-09-19T11:09:02;5.40;;;2.37;;
3643;SDS011;1838;50.742;7.158;2023-09-19T11:30:39;8.70;;;2.40;;
3643;SDS011;1838;50.742;7.158;2023-09-19T11:33:18;8.90;;;2.20;;
3643;SDS011;1838;50.742;7.158;2023-09-19T11:36:07;6.80;;;2.30;;
3643;SDS011;1838;50.742;7.158;2023-09-19T11:49:27;5.77;;;2.50;;
3643;SDS011;1838;50.742;7.158;2023-09-19T11:51:57;6.97;;;2.20;;
3643;SDS011;1838;50.742;7.158;2023-09-19T11:54:25;5.37;;;2.60;;
3643;SDS011;1838;50.742;7.158;2023-09-19T11:56:56;5.60;;;2.73;;
3643;SDS011;1838;50.742;7.158;2023-09-19T11:59:25;7.67;;;2.30;;
3643;SDS011;1838;50.742;7.158;2023-09-19T12:01:56;5.30;;;1.83;;
3643;SDS011;1838;50.742;7.158;2023-09-19T12:04:35;5.10;;;2.17;;
3643;SDS011;1838;50.742;7.158;2023-09-19T12:07:03;9.23;;;2.07;;
3643;SDS011;1838;50.742;7.158;2023-09-19T12:09:39;11.83;;;2.90;;
3643;SDS011;1838;50.742;7.158;2023-09-19T12:12:22;7.07;;;2.83;;
3643;SDS011;1838;50.742;7.158;2023-09-19T12:14:52;6.53;;;2.53;;
3643;SDS011;1838;50.742;7.158;2023-09-19T12:17:18;9.00;;;2.57;;
3643;SDS011;1838;50.742;7.158;2023-09-19T12:19:55;10.70;;;2.93;;
3643;SDS011;1838;50.742;7.158;2023-09-19T12:22:21;3.00;;;1.97;;
3643;SDS011;1838;50.742;7.158;2023-09-19T12:24:47;4.57;;;2.20;;
3643;SDS011;1838;50.742;7.158;2023-09-19T12:27:13;8.13;;;1.93;;
3643;SDS011;1838;50.742;7.158;2023-09-19T12:29:49;6.93;;;2.20;;
3643;SDS011;1838;50.742;7.158;2023-09-19T12:32:15;8.50;;;2.90;;
3643;SDS011;1838;50.742;7.158;2023-09-19T12:34:50;5.20;;;1.87;;
3643;SDS011;1838;50.742;7.158;2023-09-19T12:37:17;6.30;;;1.90;;
3643;SDS011;1838;50.742;7.158;2023-09-19T12:39:46;3.63;;;2.07;;
3643;SDS011;1838;50.742;7.158;2023-09-19T12:42:18;6.50;;;2.63;;
3643;SDS011;1838;50.742;7.158;2023-09-19T12:44:46;5.60;;;2.10;;
3643;SDS011;1838;50.742;7.158;2023-09-19T12:47:14;5.80;;;2.13;;
3643;SDS011;1838;50.742;7.158;2023-09-19T12:52:37;12.13;;;2.63;;
3643;SDS011;1838;50.742;7.158;2023-09-19T12:55:04;10.10;;;2.33;;
3643;SDS011;1838;50.742;7.158;2023-09-19T12:57:32;9.70;;;2.13;;
3643;SDS011;1838;50.742;7.158;2023-09-19T13:00:03;4.33;;;1.90;;
3643;SDS011;1838;50.742;7.158;2023-09-19T13:02:36;5.13;;;2.30;;
3643;SDS011;1838;50.742;7.158;2023-09-19T13:05:02;4.00;;;1.60;;
3643;SDS011;1838;50.742;7.158;2023-09-19T13:07:41;7.30;;;2.00;;
3643;SDS011;1838;50.742;7.158;2023-09-19T13:10:08;2.67;;;1.60;;
3643;SDS011;1838;50.742;7.158;2023-09-19T13:12:35;6.73;;;1.87;;
3643;SDS011;1838;50.742;7.158;2023-09-19T13:15:09;5.80;;;2.07;;
3643;SDS011;1838;50.742;7.158;2023-09-19T13:17:42;4.40;;;1.87;;
3643;SDS011;1838;50.742;7.158;2023-09-19T13:20:20;5.00;;;1.80;;
3643;SDS011;1838;50.742;7.158;2023-09-19T13:22:49;3.60;;;1.70;;
3643;SDS011;1838;50.742;7.158;2023-09-19T13:25:19;6.20;;;1.57;;
3643;SDS011;1838;50.742;7.158;2023-09-19T13:27:48;5.37;;;1.87;;
3643;SDS011;1838;50.742;7.158;2023-09-19T13:30:21;7.53;;;1.63;;
3643;SDS011;1838;50.742;7.158;2023-09-19T13:32:52;2.43;;;1.30;;
3643;SDS011;1838;50.742;7.158;2023-09-19T13:35:28;4.87;;;1.57;;
3643;SDS011;1838;50.742;7.158;2023-09-19T13:37:54;3.70;;;1.63;;
3643;SDS011;1838;50.742;7.158;2023-09-19T13:40:19;4.83;;;1.60;;
3643;SDS011;1838;50.742;7.158;2023-09-19T13:42:45;2.60;;;1.47;;
3643;SDS011;1838;50.742;7.158;2023-09-19T13:45:10;3.43;;;1.50;;
3643;SDS011;1838;50.742;7.158;2023-09-19T13:47:37;3.40;;;1.27;;
3643;SDS011;1838;50.742;7.158;2023-09-19T13:50:03;4.13;;;1.27;;
3643;SDS011;1838;50.742;7.158;2023-09-19T13:52:30;8.13;;;1.80;;
3643;SDS011;1838;50.742;7.158;2023-09-19T13:54:56;6.33;;;1.30;;
3643;SDS011;1838;50.742;7.158;2023-09-19T13:57:23;12.60;;;2.00;;
3643;SDS011;1838;50.742;7.158;2023-09-19T13:59:49;3.27;;;1.60;;
3643;SDS011;1838;50.742;7.158;2023-09-19T14:02:14;5.13;;;1.90;;
3643;SDS011;1838;50.742;7.158;2023-09-19T14:04:43;4.63;;;1.67;;
3643;SDS011;1838;50.742;7.158;2023-09-19T14:07:09;4.67;;;1.60;;
3643;SDS011;1838;50.742;7.158;2023-09-19T14:09:36;5.07;;;1.53;;
3643;SDS011;1838;50.742;7.158;2023-09-19T14:12:02;6.60;;;1.63;;
3643;SDS011;1838;50.742;7.158;2023-09-19T14:14:28;5.43;;;1.67;;
3643;SDS011;1838;50.742;7.158;2023-09-19T14:16:53;4.87;;;2.03;;
3643;SDS011;1838;50.742;7.158;2023-09-19T14:19:19;3.00;;;1.37;;
3643;SDS011;1838;50.742;7.158;2023-09-19T14:21:45;5.20;;;1.60;;
3643;SDS011;1838;50.742;7.158;2023-09-19T14:24:11;3.03;;;1.60;;
3643;SDS011;1838;50.742;7.158;2023-09-19T14:26:41;5.73;;;1.50;;
3643;SDS011;1838;50.742;7.158;2023-09-19T14:29:07;3.53;;;1.50;;
3643;SDS011;1838;50.742;7.158;2023-09-19T14:31:33;5.00;;;1.73;;
3643;SDS011;1838;50.742;7.158;2023-09-19T14:33:58;3.00;;;1.40;;
3643;SDS011;1838;50.742;7.158;2023-09-19T14:36:24;2.80;;;1.27;;
3643;SDS011;1838;50.742;7.158;2023-09-19T14:38:55;5.60;;;2.00;;
3643;SDS011;1838;50.742;7.158;2023-09-19T14:41:22;3.63;;;1.67;;
3643;SDS011;1838;50.742;7.158;2023-09-19T14:43:50;6.50;;;1.43;;
3643;SDS011;1838;50.742;7.158;2023-09-19T14:46:20;2.57;;;1.70;;
3643;SDS011;1838;50.742;7.158;2023-09-19T14:48:46;1.63;;;0.90;;
3643;SDS011;1838;50.742;7.158;2023-09-19T14:51:16;4.43;;;1.50;;
3643;SDS011;1838;50.742;7.158;2023-09-19T14:53:42;3.73;;;1.03;;
3643;SDS011;1838;50.742;7.158;2023-09-19T14:56:08;3.20;;;1.67;;
3643;SDS011;1838;50.742;7.158;2023-09-19T14:58:34;4.43;;;1.47;;
3643;SDS011;1838;50.742;7.158;2023-09-19T15:03:30;3.60;;;1.30;;
3643;SDS011;1838;50.742;7.158;2023-09-19T15:06:02;4.03;;;1.47;;
3643;SDS011;1838;50.742;7.158;2023-09-19T15:08:30;3.00;;;1.60;;
3643;SDS011;1838;50.742;7.158;2023-09-19T15:10:56;2.77;;;1.33;;
3643;SDS011;1838;50.742;7.158;2023-09-19T15:13:23;5.80;;;1.60;;
3643;SDS011;1838;50.742;7.158;2023-09-19T15:15:53;2.87;;;1.33;;
3643;SDS011;1838;50.742;7.158;2023-09-19T15:18:24;3.70;;;1.47;;
3643;SDS011;1838;50.742;7.158;2023-09-19T15:20:50;3.77;;;1.40;;
3643;SDS011;1838;50.742;7.158;2023-09-19T15:23:15;3.40;;;1.60;;
3643;SDS011;1838;50.742;7.158;2023-09-19T15:25:47;3.90;;;1.50;;
3643;SDS011;1838;50.742;7.158;2023-09-19T15:28:13;2.50;;;1.40;;
3643;SDS011;1838;50.742;7.158;2023-09-19T15:30:39;5.00;;;1.63;;
3643;SDS011;1838;50.742;7.158;2023-09-19T15:33:05;3.83;;;1.77;;
3643;SDS011;1838;50.742;7.158;2023-09-19T15:35:30;2.47;;;1.30;;
3643;SDS011;1838;50.742;7.158;2023-09-19T15:37:56;5.60;;;1.67;;
3643;SDS011;1838;50.742;7.158;2023-09-19T15:40:23;3.43;;;1.60;;
3643;SDS011;1838;50.742;7.158;2023-09-19T15:42:50;3.97;;;1.47;;
3643;SDS011;1838;50.742;7.158;2023-09-19T15:45:15;3.40;;;1.27;;
3643;SDS011;1838;50.742;7.158;2023-09-19T15:47:42;3.00;;;1.40;;
3643;SDS011;1838;50.742;7.158;2023-09-19T15:50:08;3.90;;;1.30;;
3643;SDS011;1838;50.742;7.158;2023-09-19T15:52:35;3.20;;;1.77;;
3643;SDS011;1838;50.742;7.158;2023-09-19T15:55:02;2.83;;;1.23;;
3643;SDS011;1838;50.742;7.158;2023-09-19T15:57:28;3.10;;;1.53;;
3643;SDS011;1838;50.742;7.158;2023-09-19T15:59:54;3.90;;;1.53;;
3643;SDS011;1838;50.742;7.158;2023-09-19T16:02:19;4.50;;;1.27;;
3643;SDS011;1838;50.742;7.158;2023-09-19T16:04:45;3.27;;;1.40;;
3643;SDS011;1838;50.742;7.158;2023-09-19T16:07:10;5.13;;;1.80;;
3643;SDS011;1838;50.742;7.158;2023-09-19T16:09:36;2.97;;;1.77;;
3643;SDS011;1838;50.742;7.158;2023-09-19T16:12:01;5.93;;;1.77;;
3643;SDS011;1838;50.742;7.158;2023-09-19T16:14:28;5.83;;;1.50;;
3643;SDS011;1838;50.742;7.158;2023-09-19T16:16:55;4.40;;;1.87;;
3643;SDS011;1838;50.742;7.158;2023-09-19T16:19:22;5.90;;;1.57;;
3643;SDS011;1838;50.742;7.158;2023-09-19T16:21:48;3.10;;;1.30;;